Grindrod, Canada
Current Conditions -  °F | °C
As of 8:30 PM on Tuesday 27 Jan 2015 (Local Time) from CYRV Reporting Station
Haze Haze  
Wind Chill: 34°   Ceiling: 300
Heat Index: 34°   Visibility: 3mi
Dew Point: 34°   Wind: 3mph
Humidity: 100%   Direction: 50°NE
Pressure: 30.08"   Gusts: NA
Location:  50.63°N, 119.12°W
Report Text: CYRV 280430Z AUTO 05003KT 3SM BR BKN003 BKN007 OVC014 01/01 A3008 RMK VIS VRB 1 1/2-3 SLP205
Loading
Personal Weather Stations






























Interactive Weather Map New forecast layout! Learn more

10-Day Weather Forecast

Advertisements
Track Severe Weather on mobile